Time;durP1;ratioP1;P1;durP2;ratioP2;P2;SDS_P1;SDS_P2;PMS_P1;PMS_P2;Temp;Humidity;BMP_temperature;BMP_pressure;BME280_temperature;BME280_humidity;BME280_pressure;Samples;Min_cycle;Max_cycle;Signal;HPM_P1;HPM_P2
2022/08/03 00:01:43;;;;;;;3.97;3.57;;;;;;;24.18;54.91;97011.25;6147105;22;20564;-74
2022/08/03 00:04:10;;;;;;;4.20;3.80;;;;;;;24.19;54.75;96997.84;6175087;22;20166;-76
2022/08/03 00:06:37;;;;;;;4.00;3.70;;;;;;;24.24;54.16;96995.59;6173343;22;20266;-74
2022/08/03 00:09:04;;;;;;;4.40;3.60;;;;;;;24.36;53.83;97008.56;6148321;22;20196;-74
2022/08/03 00:11:32;;;;;;;3.93;3.53;;;;;;;24.42;53.87;97013.25;6147035;23;20175;-74
2022/08/03 00:14:00;;;;;;;3.60;3.27;;;;;;;24.42;53.95;97002.66;6174474;22;20175;-74
2022/08/03 00:16:27;;;;;;;3.30;3.00;;;;;;;24.27;54.22;96994.44;6147563;22;20211;-73
2022/08/03 00:18:54;;;;;;;3.83;3.23;;;;;;;24.37;54.38;97004.91;6173891;22;20630;-72
2022/08/03 00:21:21;;;;;;;3.70;3.40;;;;;;;24.38;53.88;97006.59;6174402;22;20521;-71
2022/08/03 00:23:48;;;;;;;3.27;2.97;;;;;;;24.36;54.32;97013.88;6173296;23;20222;-73
2022/08/03 00:26:21;;;;;;;3.30;3.00;;;;;;;23.96;54.90;97007.25;6174207;22;20171;-71
2022/08/03 00:28:49;;;;;;;3.00;2.73;;;;;;;23.77;55.02;96996.84;6122128;22;20175;-72
2022/08/03 00:31:16;;;;;;;3.33;3.03;;;;;;;23.64;55.94;97003.50;6174189;22;20218;-72
2022/08/03 00:34:03;;;;;;;3.33;3.03;;;;;;;23.36;56.80;97008.84;6174191;22;20165;-72
2022/08/03 00:36:31;;;;;;;3.40;3.10;;;;;;;23.16;57.28;97003.81;6173280;22;20194;-71
2022/08/03 00:38:58;;;;;;;3.17;2.80;;;;;;;23.07;57.76;97008.16;6147959;22;20182;-71
2022/08/03 00:41:26;;;;;;;3.83;2.97;;;;;;;22.98;58.14;97013.50;6173006;22;20499;-73
2022/08/03 00:43:53;;;;;;;2.93;2.73;;;;;;;22.78;58.90;97007.47;6174410;22;20219;-72
2022/08/03 00:46:21;;;;;;;3.80;2.90;;;;;;;22.54;59.56;97007.97;6173143;22;20170;-73
2022/08/03 00:48:49;;;;;;;3.23;2.93;;;;;;;22.36;60.41;97017.59;6147483;22;20767;-75
2022/08/03 00:51:17;;;;;;;5.33;3.17;;;;;;;22.27;60.82;97013.19;6174044;22;20218;-72
2022/08/03 00:53:44;;;;;;;3.17;2.87;;;;;;;22.12;61.35;97006.69;6173626;22;20165;-72
2022/08/03 00:56:13;;;;;;;3.20;2.87;;;;;;;22.19;61.38;97010.44;6174742;22;20204;-72
2022/08/03 00:58:43;;;;;;;3.63;3.33;;;;;;;22.15;61.93;97022.25;6172931;23;20176;-72
2022/08/03 01:01:11;;;;;;;6.27;3.47;;;;;;;22.11;62.21;97020.88;6278015;22;20234;-75
2022/08/03 01:03:39;;;;;;;3.77;3.00;;;;;;;22.13;62.61;97013.63;6173625;22;20716;-73
2022/08/03 01:06:18;;;;;;;3.27;2.50;;;;;;;22.21;61.99;97016.41;6173958;22;20174;-72
2022/08/03 01:09:00;;;;;;;2.77;2.57;;;;;;;22.17;62.06;97019.47;6174054;23;20243;-72
2022/08/03 01:11:52;;;;;;;3.33;3.03;;;;;;;22.25;61.70;97009.88;6173680;22;20272;-72
2022/08/03 01:14:40;;;;;;;3.27;2.60;;;;;;;22.32;61.04;97005.66;6175497;22;20227;-72
2022/08/03 01:17:22;;;;;;;3.40;2.70;;;;;;;22.35;60.75;97000.09;6305185;22;20634;-72
2022/08/03 01:19:55;;;;;;;4.37;3.00;;;;;;;22.32;60.97;97010.94;6174484;22;20293;-71
2022/08/03 01:22:28;;;;;;;6.20;2.70;;;;;;;22.39;60.61;97005.91;6175766;22;20606;-76
2022/08/03 01:25:08;;;;;;;2.77;2.53;;;;;;;22.72;59.88;97017.78;6174061;22;20165;-72
2022/08/03 01:27:56;;;;;;;2.87;2.57;;;;;;;22.98;58.72;97014.31;6278273;22;20170;-72
2022/08/03 01:30:28;;;;;;;2.90;2.70;;;;;;;23.16;58.05;97009.91;6174966;22;20620;-75
2022/08/03 01:33:11;;;;;;;3.83;2.70;;;;;;;23.37;57.96;97009.66;6174342;22;20197;-74
2022/08/03 01:35:44;;;;;;;2.90;2.60;;;;;;;23.56;56.98;97012.19;6175219;22;20192;-76
2022/08/03 01:38:16;;;;;;;3.10;2.80;;;;;;;23.61;56.41;97007.28;6174132;22;20223;-75
2022/08/03 01:40:46;;;;;;;3.67;2.93;;;;;;;23.55;56.91;97010.53;6279277;22;20179;-75
2022/08/03 01:43:18;;;;;;;4.10;3.03;;;;;;;23.13;57.48;96970.59;6279091;22;20220;-74
2022/08/03 01:46:07;;;;;;;5.93;4.03;;;;;;;23.11;58.46;97008.69;6174014;22;20217;-75
2022/08/03 01:48:40;;;;;;;7.17;6.33;;;;;;;22.97;58.69;97003.91;6175480;22;20167;-72
2022/08/03 01:51:09;;;;;;;3.77;3.40;;;;;;;22.85;59.15;97013.84;6174875;22;20200;-72
2022/08/03 01:53:38;;;;;;;3.53;3.00;;;;;;;23.03;58.64;97012.09;6174869;22;20170;-72
2022/08/03 01:56:06;;;;;;;3.50;2.90;;;;;;;22.96;59.08;97012.78;6278694;22;21029;-72
2022/08/03 01:58:36;;;;;;;3.30;3.00;;;;;;;23.23;58.37;97012.78;6278110;22;20171;-72
2022/08/03 02:01:04;;;;;;;3.87;3.40;;;;;;;23.38;58.01;97014.81;6175169;22;20174;-73
2022/08/03 02:03:37;;;;;;;3.10;2.90;;;;;;;23.57;57.26;97011.22;6173964;22;20228;-73
2022/08/03 02:06:25;;;;;;;4.20;3.03;;;;;;;23.61;57.11;96996.72;6175188;22;20560;-72
2022/08/03 02:09:16;;;;;;;3.53;3.23;;;;;;;23.68;57.05;97002.22;6175541;22;20174;-72
2022/08/03 02:11:45;;;;;;;3.20;2.90;;;;;;;23.66;56.47;97004.19;6173987;22;20560;-72
2022/08/03 02:14:14;;;;;;;3.83;2.70;;;;;;;23.76;56.07;97008.38;6175211;22;20604;-72
2022/08/03 02:16:43;;;;;;;4.03;3.30;;;;;;;23.71;56.41;97008.03;6174407;22;20198;-72
2022/08/03 02:19:11;;;;;;;3.80;3.50;;;;;;;23.67;56.60;97016.41;6174927;22;20683;-73
2022/08/03 02:21:40;;;;;;;4.53;4.10;;;;;;;23.62;56.31;97013.41;6174216;22;20634;-72
2022/08/03 02:24:26;;;;;;;3.83;3.17;;;;;;;23.65;56.66;97023.66;6174469;22;20273;-75
2022/08/03 02:26:55;;;;;;;3.70;3.37;;;;;;;23.45;56.68;97020.34;6175162;22;20177;-72
2022/08/03 02:29:26;;;;;;;4.67;3.20;;;;;;;23.36;56.86;97021.22;6174027;22;20216;-72
2022/08/03 02:32:11;;;;;;;3.23;3.03;;;;;;;23.53;57.09;97020.44;6175322;22;20167;-73
2022/08/03 02:34:44;;;;;;;3.30;3.00;;;;;;;23.44;56.64;96973.72;6174296;22;20779;-72
2022/08/03 02:37:13;;;;;;;5.13;3.27;;;;;;;23.61;57.02;97012.56;6174624;22;20194;-73
2022/08/03 02:39:42;;;;;;;4.03;2.90;;;;;;;23.57;57.35;97005.91;6174791;22;20172;-73
2022/08/03 02:42:12;;;;;;;3.97;3.23;;;;;;;23.61;56.44;97015.22;6277244;22;20441;-73
2022/08/03 02:44:46;;;;;;;3.47;3.00;;;;;;;23.57;56.42;97013.84;6175158;22;20181;-72
2022/08/03 02:47:14;;;;;;;3.13;2.83;;;;;;;23.50;56.50;97004.84;6276580;22;20727;-74
2022/08/03 02:49:43;;;;;;;6.17;3.67;;;;;;;23.57;56.26;97015.66;6278845;22;20167;-76
2022/08/03 02:52:23;;;;;;;4.27;3.77;;;;;;;23.58;56.06;97010.22;6174881;22;20223;-74
2022/08/03 02:54:55;;;;;;;3.93;3.43;;;;;;;23.47;56.06;97010.44;6277550;22;20214;-76
2022/08/03 02:57:24;;;;;;;7.03;3.20;;;;;;;23.23;57.19;97020.72;6175066;22;20525;-76
2022/08/03 02:59:53;;;;;;;13.07;6.07;;;;;;;23.31;56.67;97013.72;6173792;22;20190;-76
2022/08/03 03:02:21;;;;;;;9.33;7.67;;;;;;;23.37;56.35;97020.22;6175474;22;20166;-76
2022/08/03 03:04:51;;;;;;;6.07;4.43;;;;;;;23.22;57.64;97019.06;6277647;22;20575;-76
2022/08/03 03:07:39;;;;;;;7.03;3.37;;;;;;;23.23;57.17;97028.66;6174405;22;20191;-73
2022/08/03 03:10:24;;;;;;;4.97;3.20;;;;;;;23.40;56.61;97030.53;6278547;22;20258;-74
2022/08/03 03:12:55;;;;;;;15.47;4.63;;;;;;;23.32;56.40;97035.72;6173537;22;20618;-75
2022/08/03 03:15:24;;;;;;;3.50;3.20;;;;;;;23.26;56.95;97038.94;6278256;22;20221;-72
2022/08/03 03:17:52;;;;;;;9.40;4.53;;;;;;;23.35;56.28;97032.78;6276262;22;20222;-72
2022/08/03 03:20:21;;;;;;;7.67;4.50;;;;;;;23.47;56.20;97044.81;6174521;23;20164;-72
2022/08/03 03:22:58;;;;;;;6.23;3.90;;;;;;;23.52;56.98;97042.53;6174777;22;20689;-72
2022/08/03 03:25:29;;;;;;;8.80;3.70;;;;;;;23.54;56.37;97043.22;6173784;22;20225;-72
2022/08/03 03:28:01;;;;;;;8.40;4.00;;;;;;;23.67;56.79;97043.69;6174799;22;20173;-75
2022/08/03 03:30:28;;;;;;;5.57;3.63;;;;;;;23.57;56.28;97042.94;6174134;22;20175;-73
2022/08/03 03:32:57;;;;;;;4.33;3.73;;;;;;;23.78;56.15;97050.59;6174592;22;20250;-73
2022/08/03 03:35:26;;;;;;;4.73;3.80;;;;;;;23.69;55.39;97043.53;6173804;22;20273;-75
2022/08/03 03:37:53;;;;;;;4.40;3.27;;;;;;;23.76;55.71;97052.56;6174155;22;20164;-76
2022/08/03 03:40:21;;;;;;;4.90;3.60;;;;;;;23.71;55.71;97049.50;6174721;22;20274;-74
2022/08/03 03:42:49;;;;;;;5.13;3.30;;;;;;;23.33;57.09;97047.94;6275532;22;20250;-73
2022/08/03 03:45:17;;;;;;;3.60;3.30;;;;;;;23.05;58.24;97054.19;6174870;22;20624;-72
2022/08/03 03:47:44;;;;;;;4.43;3.50;;;;;;;22.81;59.06;97054.75;6275735;22;20483;-75
2022/08/03 03:50:11;;;;;;;6.57;3.40;;;;;;;22.71;59.89;97068.94;6174251;22;20170;-75
2022/08/03 03:52:38;;;;;;;4.23;3.30;;;;;;;22.41;60.75;97062.03;6173893;22;20169;-72
2022/08/03 03:55:06;;;;;;;5.70;3.37;;;;;;;22.22;61.72;97069.97;6276641;22;20207;-73
2022/08/03 03:57:33;;;;;;;3.77;3.47;;;;;;;22.21;61.48;97047.22;6174201;22;20891;-73
2022/08/03 04:00:01;;;;;;;5.70;3.13;;;;;;;22.24;61.60;97060.94;6276195;22;20617;-76
2022/08/03 04:02:30;;;;;;;3.80;3.20;;;;;;;22.22;61.43;97065.53;6174885;23;20169;-75
2022/08/03 04:11:24;;;;;;;5.67;3.60;;;;;;;22.42;60.99;97064.53;6174456;22;20179;-72
2022/08/03 04:14:02;;;;;;;6.23;4.33;;;;;;;22.84;60.61;97064.16;6173438;22;20165;-73
2022/08/03 04:16:34;;;;;;;5.00;3.87;;;;;;;23.09;59.16;97068.78;6276775;22;20200;-72
2022/08/03 04:19:05;;;;;;;4.13;3.67;;;;;;;23.14;58.91;97071.81;6174265;22;20166;-75
2022/08/03 04:21:36;;;;;;;5.90;3.70;;;;;;;23.22;58.98;97075.41;6173495;22;20624;-73
2022/08/03 04:24:07;;;;;;;6.87;4.13;;;;;;;23.63;57.50;97068.78;6174468;22;20175;-75
2022/08/03 04:26:38;;;;;;;7.40;4.20;;;;;;;23.55;57.66;97075.78;6173431;22;20788;-76
2022/08/03 04:29:06;;;;;;;8.57;4.63;;;;;;;23.30;58.75;97072.03;6277567;22;20249;-77
2022/08/03 04:31:35;;;;;;;6.50;3.87;;;;;;;23.36;57.92;97063.53;6173601;22;20575;-73
2022/08/03 04:34:03;;;;;;;5.77;4.00;;;;;;;23.55;58.07;97071.34;6173788;22;20252;-77
2022/08/03 04:36:32;;;;;;;6.60;4.10;;;;;;;23.73;57.24;97063.41;6173943;22;20642;-77
2022/08/03 04:38:59;;;;;;;13.83;4.67;;;;;;;23.93;56.86;97065.75;6173157;22;20507;-77
2022/08/03 04:41:29;;;;;;;10.43;5.33;;;;;;;24.01;56.29;97067.63;6174446;22;20822;-77
2022/08/03 04:43:57;;;;;;;12.10;4.70;;;;;;;24.21;55.87;97064.69;6277133;22;20170;-76
2022/08/03 04:46:28;;;;;;;14.57;6.00;;;;;;;24.50;55.01;97067.09;6174833;22;20167;-76
2022/08/03 04:48:55;;;;;;;4.90;4.37;;;;;;;24.52;55.03;97078.34;6174843;22;20168;-76
2022/08/03 04:51:24;;;;;;;5.40;4.50;;;;;;;24.42;55.00;97080.25;6175309;22;20163;-73
2022/08/03 04:53:51;;;;;;;8.03;5.30;;;;;;;24.44;55.49;97082.75;6175700;22;20169;-77
2022/08/03 04:56:18;;;;;;;8.13;5.00;;;;;;;24.43;55.19;97083.72;6148305;22;20204;-75
2022/08/03 04:58:45;;;;;;;6.93;5.47;;;;;;;24.43;54.83;97086.38;6175936;22;20170;-75
2022/08/03 05:01:15;;;;;;;6.33;4.30;;;;;;;24.47;54.88;97090.38;6148754;22;20685;-77
2022/08/03 05:03:43;;;;;;;6.23;4.77;;;;;;;24.46;55.19;97091.38;6125260;22;20168;-74
2022/08/03 05:06:10;;;;;;;12.90;5.33;;;;;;;24.49;55.52;97083.94;6148286;22;20168;-76
2022/08/03 05:08:38;;;;;;;10.10;4.90;;;;;;;24.37;55.93;97094.94;6175054;22;20168;-73
2022/08/03 05:11:14;;;;;;;9.00;5.13;;;;;;;24.51;55.53;97097.03;6175374;22;20581;-76
2022/08/03 05:13:44;;;;;;;7.27;4.63;;;;;;;24.61;54.93;97095.09;6253303;22;20574;-72
2022/08/03 05:16:12;;;;;;;6.73;4.77;;;;;;;24.70;54.82;97088.88;6149196;22;20193;-74
2022/08/03 05:18:46;;;;;;;10.47;5.67;;;;;;;24.82;54.87;97087.66;6172026;22;20496;-74
2022/08/03 05:21:39;;;;;;;10.37;5.30;;;;;;;24.83;54.96;97094.66;6134712;22;20184;-76
2022/08/03 05:24:18;;;;;;;7.73;4.83;;;;;;;24.85;53.92;97077.56;6151088;22;20166;-76
2022/08/03 05:26:45;;;;;;;7.80;4.50;;;;;;;24.91;54.17;97094.69;6174154;22;20200;-78
2022/08/03 05:29:13;;;;;;;9.17;5.00;;;;;;;24.98;53.55;97096.53;6148791;22;20247;-76
2022/08/03 05:31:43;;;;;;;12.87;5.17;;;;;;;25.00;53.98;97091.91;6174666;22;20183;-75
2022/08/03 05:34:10;;;;;;;6.97;4.63;;;;;;;24.99;54.21;97107.97;6148859;23;20660;-77
2022/08/03 05:36:37;;;;;;;12.27;4.80;;;;;;;24.93;54.39;97109.44;6147391;22;20210;-76
2022/08/03 05:39:05;;;;;;;6.50;4.70;;;;;;;25.10;53.73;97110.34;6124684;22;20181;-73
2022/08/03 05:41:45;;;;;;;10.33;4.87;;;;;;;25.28;53.64;97111.09;6149014;22;20178;-74
2022/08/03 05:44:12;;;;;;;6.70;5.20;;;;;;;25.37;53.38;97110.13;6123876;22;20178;-74
2022/08/03 05:46:40;;;;;;;7.07;4.93;;;;;;;25.12;52.77;97087.19;6149000;22;20250;-75
2022/08/03 05:49:08;;;;;;;5.13;4.60;;;;;;;25.04;53.84;97121.56;6174500;22;20174;-73
2022/08/03 05:51:36;;;;;;;5.60;3.90;;;;;;;24.69;54.11;97111.09;6149191;22;20173;-77
2022/08/03 05:54:03;;;;;;;6.37;4.47;;;;;;;24.66;54.35;97121.97;6147699;22;20170;-76
2022/08/03 05:56:31;;;;;;;6.53;4.73;;;;;;;24.56;54.72;97126.53;6174522;22;20197;-74
2022/08/03 05:58:59;;;;;;;7.97;5.07;;;;;;;24.56;54.80;97129.19;6253175;22;20235;-75
2022/08/03 06:01:52;;;;;;;7.03;4.40;;;;;;;24.33;54.80;97135.94;6256869;22;20165;-75
2022/08/03 06:04:21;;;;;;;5.00;4.33;;;;;;;24.39;55.35;97125.56;6275681;22;20168;-73
2022/08/03 06:06:49;;;;;;;8.93;4.97;;;;;;;24.45;56.09;97145.31;6278248;22;20197;-72
2022/08/03 06:09:16;;;;;;;7.20;5.13;;;;;;;24.04;57.79;97144.94;6278711;22;20193;-72
2022/08/03 06:11:43;;;;;;;6.37;5.37;;;;;;;24.09;57.90;97150.59;6174180;22;20680;-72
2022/08/03 06:14:11;;;;;;;9.67;5.07;;;;;;;24.12;57.82;97133.59;6174913;22;20225;-72
2022/08/03 06:16:38;;;;;;;5.33;4.83;;;;;;;24.28;56.97;97133.75;6175146;22;20204;-73
2022/08/03 06:19:06;;;;;;;9.83;5.33;;;;;;;24.40;56.92;97137.81;6176039;22;20228;-76
2022/08/03 06:21:33;;;;;;;7.03;5.00;;;;;;;24.57;55.59;97134.31;6178663;22;20165;-73
2022/08/03 06:24:00;;;;;;;8.37;5.70;;;;;;;24.72;55.74;97140.72;6285210;22;20184;-73
2022/08/03 06:26:28;;;;;;;5.23;4.27;;;;;;;24.73;54.92;97145.06;6188649;22;20700;-72
2022/08/03 06:28:55;;;;;;;7.23;4.43;;;;;;;24.63;55.30;97140.81;6189537;22;20723;-72
2022/08/03 06:31:25;;;;;;;8.73;4.67;;;;;;;24.62;55.74;97136.50;6188185;22;20534;-69
2022/08/03 06:34:02;;;;;;;7.60;4.53;;;;;;;24.72;55.25;97142.53;6187990;22;20251;-73
2022/08/03 06:36:51;;;;;;;6.83;4.50;;;;;;;24.79;54.22;97140.97;6180879;22;20584;-73
2022/08/03 06:39:20;;;;;;;8.53;4.43;;;;;;;24.62;54.32;97121.47;6179396;22;20160;-74
2022/08/03 06:41:50;;;;;;;6.33;4.63;;;;;;;24.60;54.38;97144.63;6280596;22;20179;-75
2022/08/03 06:44:17;;;;;;;5.33;3.73;;;;;;;24.65;54.02;97138.84;6176823;22;20214;-76
2022/08/03 06:46:47;;;;;;;4.43;3.43;;;;;;;24.78;53.54;97147.25;6177141;22;20165;-78
2022/08/03 06:49:14;;;;;;;5.47;3.50;;;;;;;24.74;53.49;97136.16;6176861;22;20176;-75
2022/08/03 06:51:42;;;;;;;4.77;3.73;;;;;;;24.54;55.13;97155.00;6281517;22;20168;-73
2022/08/03 06:54:30;;;;;;;6.73;4.00;;;;;;;24.45;54.75;97142.66;6176990;22;20206;-77
2022/08/03 06:56:59;;;;;;;4.27;3.87;;;;;;;24.56;54.39;97150.38;6179053;22;20196;-74
2022/08/03 06:59:29;;;;;;;5.90;3.67;;;;;;;24.51;55.55;97134.09;6176325;22;20169;-77
2022/08/03 07:02:18;;;;;;;7.00;3.77;;;;;;;24.57;55.02;97131.69;6175463;22;20173;-77
2022/08/03 07:04:47;;;;;;;4.70;3.67;;;;;;;24.60;55.06;97149.06;6174163;22;20169;-79
2022/08/03 07:07:14;;;;;;;4.30;3.50;;;;;;;24.70;55.02;97134.75;6174215;22;20165;-76
2022/08/03 07:09:41;;;;;;;6.00;3.50;;;;;;;24.90;54.51;97149.50;6175154;22;20247;-76
2022/08/03 07:12:23;;;;;;;3.80;3.47;;;;;;;24.89;54.52;97154.97;6175183;22;20169;-77
2022/08/03 07:14:50;;;;;;;3.83;3.53;;;;;;;25.16;53.91;97154.81;6277833;22;20601;-73
2022/08/03 07:17:22;;;;;;;6.00;4.37;;;;;;;25.24;52.78;97138.94;6277994;22;20275;-78
2022/08/03 07:19:49;;;;;;;3.13;2.83;;;;;;;25.42;51.27;97146.81;6276658;22;20170;-76
2022/08/03 07:22:16;;;;;;;3.90;3.50;;;;;;;25.47;52.34;97145.34;6174305;22;20169;-77
2022/08/03 07:24:45;;;;;;;4.00;3.57;;;;;;;25.56;51.94;97152.34;6173845;22;20235;-77
2022/08/03 07:27:12;;;;;;;4.00;3.60;;;;;;;25.66;52.66;97153.06;6174571;22;20174;-77
2022/08/03 07:29:39;;;;;;;3.90;3.50;;;;;;;25.72;50.97;97156.88;6173518;22;20497;-77
2022/08/03 07:35:16;;;;;;;3.80;3.50;;;;;;;25.94;50.56;97153.66;6174428;22;20200;-77
2022/08/03 07:37:52;;;;;;;4.23;3.83;;;;;;;26.14;49.57;97148.91;6268939;22;20202;-74
2022/08/03 07:40:21;;;;;;;4.50;3.20;;;;;;;26.11;50.35;97146.59;6174364;22;20551;-77
2022/08/03 07:42:48;;;;;;;4.57;3.60;;;;;;;26.15;49.64;97145.25;6173759;22;20163;-77
2022/08/03 07:45:22;;;;;;;7.27;5.10;;;;;;;26.38;49.04;97155.06;6173797;22;20249;-78
2022/08/03 07:47:49;;;;;;;4.80;3.23;;;;;;;26.72;48.61;97156.75;6173369;22;20556;-74
2022/08/03 07:50:20;;;;;;;5.33;4.47;;;;;;;27.04;47.12;97156.69;6173410;22;20175;-77
2022/08/03 07:52:48;;;;;;;3.57;3.10;;;;;;;27.47;44.94;97155.47;6173983;22;20169;-77
2022/08/03 07:55:19;;;;;;;4.47;2.50;;;;;;;27.71;43.12;97152.72;6172637;22;20971;-78
2022/08/03 07:57:57;;;;;;;5.17;2.70;;;;;;;28.06;41.74;97162.88;6173841;22;20205;-77
2022/08/03 08:00:24;;;;;;;3.50;2.67;;;;;;;28.23;41.89;97153.78;6276660;22;20190;-77
2022/08/03 08:02:51;;;;;;;4.43;2.90;;;;;;;28.65;41.24;97158.63;6173218;22;20517;-75
2022/08/03 08:05:18;;;;;;;4.60;3.20;;;;;;;28.33;41.28;97143.72;6173422;22;20181;-75
2022/08/03 08:07:45;;;;;;;5.43;4.20;;;;;;;28.47;41.50;97156.25;6302399;22;20174;-75
2022/08/03 08:10:17;;;;;;;3.67;3.20;;;;;;;28.59;41.66;97154.84;6173948;22;20839;-76
2022/08/03 08:12:49;;;;;;;4.43;3.10;;;;;;;28.63;42.11;97156.16;6172714;22;20167;-77
2022/08/03 08:15:16;;;;;;;5.10;3.60;;;;;;;28.72;41.91;97155.09;6173501;22;20229;-76
2022/08/03 08:17:46;;;;;;;5.90;3.90;;;;;;;29.08;41.58;97154.44;6172888;22;20216;-76
2022/08/03 08:20:18;;;;;;;9.60;4.10;;;;;;;29.11;40.69;97151.38;6173377;22;20228;-74
2022/08/03 08:22:56;;;;;;;5.70;3.10;;;;;;;28.87;41.63;97158.59;6173238;22;20185;-75
2022/08/03 08:25:27;;;;;;;5.33;3.63;;;;;;;28.62;42.02;97153.69;6172743;22;20167;-76
2022/08/03 08:27:55;;;;;;;13.43;5.00;;;;;;;28.34;41.99;97145.34;6173217;22;20626;-76
2022/08/03 08:30:43;;;;;;;6.83;4.93;;;;;;;28.40;42.52;97141.97;6275664;22;20613;-77
2022/08/03 08:33:10;;;;;;;3.30;3.00;;;;;;;28.38;42.34;97137.84;6276453;22;20163;-76
2022/08/03 08:35:51;;;;;;;12.80;7.10;;;;;;;28.52;42.12;97134.41;6173133;22;20167;-75
2022/08/03 08:38:19;;;;;;;7.53;5.80;;;;;;;28.68;42.28;97135.13;6172653;22;20218;-75
2022/08/03 08:40:47;;;;;;;6.33;5.70;;;;;;;29.04;41.22;97145.13;6276300;22;20262;-77
2022/08/03 08:43:14;;;;;;;2.93;2.60;;;;;;;28.97;40.16;97132.50;6172156;22;20159;-76
2022/08/03 08:45:43;;;;;;;3.57;3.27;;;;;;;28.74;41.04;97130.91;6173474;22;20162;-77
2022/08/03 08:48:12;;;;;;;6.77;4.53;;;;;;;28.87;41.25;97126.59;6302078;22;20167;-76
2022/08/03 08:50:40;;;;;;;4.03;3.60;;;;;;;28.97;41.11;97126.34;6172979;22;20216;-78
2022/08/03 08:53:11;;;;;;;7.10;5.37;;;;;;;29.23;41.12;97132.09;6275691;22;20265;-77
2022/08/03 08:55:47;;;;;;;4.77;3.23;;;;;;;29.45;39.77;97130.38;6172496;22;20462;-78
2022/08/03 08:58:29;;;;;;;4.90;3.13;;;;;;;29.75;39.89;97126.66;6266218;22;20201;-77
2022/08/03 09:00:56;;;;;;;3.77;3.23;;;;;;;29.93;39.25;97127.06;6172728;22;20190;-78
2022/08/03 09:03:23;;;;;;;6.63;3.30;;;;;;;29.77;39.26;97127.31;6276420;22;20167;-77
2022/08/03 09:06:00;;;;;;;3.33;3.00;;;;;;;29.80;39.71;97126.09;6172779;22;20514;-77
2022/08/03 09:08:33;;;;;;;3.63;2.97;;;;;;;29.67;40.28;97116.91;6251238;22;20582;-77
2022/08/03 09:11:00;;;;;;;3.13;2.87;;;;;;;29.64;40.37;97124.44;6275972;22;20266;-75
2022/08/03 09:13:29;;;;;;;3.00;2.70;;;;;;;29.68;39.09;97115.88;6172548;22;20196;-75
2022/08/03 09:16:16;;;;;;;3.33;2.70;;;;;;;29.38;40.16;97121.44;6275872;22;20619;-78
2022/08/03 09:18:46;;;;;;;2.90;2.70;;;;;;;28.89;41.02;97119.25;6173444;22;20247;-75
2022/08/03 09:21:13;;;;;;;3.03;2.83;;;;;;;28.80;41.37;97120.34;6173102;22;20170;-75
2022/08/03 09:24:02;;;;;;;3.73;2.97;;;;;;;28.94;41.16;97116.88;6173000;22;20194;-74
2022/08/03 09:26:36;;;;;;;3.17;2.90;;;;;;;29.12;40.80;97119.19;6173039;22;20206;-76
2022/08/03 09:29:10;;;;;;;3.43;2.97;;;;;;;28.98;41.12;97120.84;6173246;22;20487;-77
2022/08/03 09:31:43;;;;;;;2.93;2.73;;;;;;;29.14;40.94;97127.03;6276496;22;20224;-76
2022/08/03 09:34:15;;;;;;;4.00;2.63;;;;;;;29.42;40.28;97094.19;6174143;22;20178;-76
2022/08/03 09:36:44;;;;;;;3.37;3.07;;;;;;;29.61;39.73;97124.81;6277849;22;20206;-74
2022/08/03 09:39:20;;;;;;;4.13;3.00;;;;;;;29.46;40.72;97119.50;6173726;22;20217;-76
2022/08/03 09:42:10;;;;;;;2.63;2.43;;;;;;;29.05;41.08;97118.28;6174983;22;20244;-75
2022/08/03 09:44:43;;;;;;;4.10;3.00;;;;;;;28.98;41.38;97107.50;6278100;22;20610;-74
2022/08/03 09:47:13;;;;;;;4.03;2.80;;;;;;;29.12;40.12;97108.50;6276618;22;20167;-74
2022/08/03 09:49:55;;;;;;;3.20;2.90;;;;;;;29.37;40.37;97117.09;6276761;22;20163;-73
2022/08/03 09:52:29;;;;;;;4.43;3.10;;;;;;;29.58;40.16;97103.81;6173703;22;20229;-74
2022/08/03 09:55:14;;;;;;;4.07;3.27;;;;;;;29.67;40.42;97113.38;6262157;22;20234;-73
2022/08/03 09:58:07;;;;;;;5.87;2.73;;;;;;;29.15;41.01;97118.03;6151897;22;20228;-76
2022/08/03 10:00:51;;;;;;;2.90;2.47;;;;;;;28.50;41.24;97107.91;6173829;22;20163;-73
2022/08/03 10:03:18;;;;;;;2.53;2.33;;;;;;;28.45;40.45;97110.31;6277680;22;20190;-74
2022/08/03 10:05:45;;;;;;;3.20;2.50;;;;;;;28.62;40.28;97109.19;6173593;22;20816;-76
2022/08/03 10:08:17;;;;;;;2.63;2.43;;;;;;;28.94;38.96;97108.03;6252658;22;20182;-76
2022/08/03 10:10:48;;;;;;;3.67;2.67;;;;;;;29.19;39.33;97101.47;6276909;22;20167;-74
2022/08/03 10:13:18;;;;;;;3.57;2.67;;;;;;;29.70;38.49;97102.31;6277610;22;20167;-76
2022/08/03 10:15:45;;;;;;;2.27;2.07;;;;;;;29.77;37.36;97086.41;6173990;22;20162;-76
2022/08/03 10:18:32;;;;;;;2.53;1.93;;;;;;;29.84;36.73;97082.81;6173049;22;20273;-76
2022/08/03 10:21:06;;;;;;;2.30;2.10;;;;;;;30.13;36.32;97077.34;6174434;22;20494;-75
2022/08/03 10:23:40;;;;;;;3.43;2.70;;;;;;;30.62;35.52;97079.25;6273276;22;20647;-73
2022/08/03 10:26:12;;;;;;;2.80;2.60;;;;;;;30.64;35.25;97071.88;6277548;22;20194;-73
2022/08/03 10:28:45;;;;;;;3.23;2.20;;;;;;;30.69;35.24;97072.09;6173948;22;20174;-77
2022/08/03 10:31:13;;;;;;;2.77;2.23;;;;;;;30.29;35.75;97076.28;6275840;22;20167;-74
2022/08/03 10:33:43;;;;;;;2.53;2.23;;;;;;;29.70;36.57;97080.97;6276956;22;20170;-75
2022/08/03 10:36:22;;;;;;;2.83;2.50;;;;;;;29.50;36.99;97075.41;6253455;22;20784;-74
2022/08/03 10:38:55;;;;;;;3.87;2.63;;;;;;;29.23;38.24;97077.91;6276050;22;20207;-74
2022/08/03 10:41:28;;;;;;;3.47;2.27;;;;;;;29.03;38.21;97071.44;6173876;22;20172;-75
2022/08/03 10:44:01;;;;;;;3.07;2.00;;;;;;;28.54;38.70;97071.91;6225684;22;20194;-77
2022/08/03 10:46:28;;;;;;;11.90;4.63;;;;;;;28.42;38.39;97078.69;6175720;22;20262;-75
2022/08/03 10:48:56;;;;;;;2.30;2.10;;;;;;;28.14;38.08;97056.28;6173990;22;20633;-75
2022/08/03 10:51:29;;;;;;;3.30;2.60;;;;;;;28.12;38.49;97059.13;6174244;22;20173;-75
2022/08/03 10:53:59;;;;;;;3.00;2.63;;;;;;;28.36;39.21;97070.59;6277016;22;20175;-74
2022/08/03 10:59:45;;;;;;;3.00;2.33;;;;;;;28.40;39.31;97069.22;6278005;22;20225;-77
2022/08/03 11:02:13;;;;;;;4.00;2.53;;;;;;;28.62;38.77;97071.88;6173600;22;20220;-77
2022/08/03 11:04:41;;;;;;;2.30;2.10;;;;;;;28.72;38.77;97056.44;6276994;22;20169;-73
2022/08/03 11:07:22;;;;;;;2.80;2.60;;;;;;;28.64;38.89;97061.03;6303061;22;20182;-76
2022/08/03 11:09:51;;;;;;;3.37;2.30;;;;;;;28.59;38.66;97063.41;6173710;22;20529;-75
2022/08/03 11:12:30;;;;;;;2.87;2.50;;;;;;;28.80;37.86;97051.03;6173843;22;20550;-73
2022/08/03 11:15:03;;;;;;;3.17;2.40;;;;;;;28.82;38.95;97042.84;6173335;22;20190;-76
2022/08/03 11:17:32;;;;;;;4.07;2.67;;;;;;;29.22;38.42;97057.59;6277877;22;20289;-75
2022/08/03 11:20:43;;;;;;;2.80;2.60;;;;;;;29.36;37.42;97048.72;6173602;22;20163;-76
2022/08/03 11:23:11;;;;;;;4.20;3.67;;;;;;;29.54;37.61;97033.13;6173822;22;20226;-75
2022/08/03 11:26:14;;;;;;;5.77;4.20;;;;;;;29.73;38.07;97046.75;6303657;22;20173;-76
2022/08/03 11:28:44;;;;;;;2.80;2.60;;;;;;;29.95;36.34;97046.75;6173688;22;20269;-76
2022/08/03 11:31:23;;;;;;;3.13;2.80;;;;;;;30.19;36.17;97036.50;6174215;22;20167;-76
2022/08/03 11:34:13;;;;;;;3.83;3.30;;;;;;;30.43;35.47;97028.13;6174274;22;20190;-77
2022/08/03 11:37:19;;;;;;;2.63;2.43;;;;;;;30.58;35.00;97028.03;6173747;22;20162;-75
2022/08/03 11:39:58;;;;;;;3.10;2.50;;;;;;;30.37;35.48;97020.88;6174421;22;20167;-75
2022/08/03 11:42:26;;;;;;;2.80;2.60;;;;;;;29.95;35.33;97039.56;6251886;22;20178;-76
2022/08/03 11:44:57;;;;;;;2.77;2.40;;;;;;;30.01;35.25;97030.78;6173859;22;20177;-77
2022/08/03 11:47:27;;;;;;;2.73;2.00;;;;;;;29.45;36.00;97012.94;6174373;22;20163;-76
2022/08/03 11:50:00;;;;;;;4.63;2.30;;;;;;;29.48;36.24;97026.72;6173603;22;20638;-76
2022/08/03 11:52:38;;;;;;;3.83;2.63;;;;;;;29.56;36.26;97023.09;6275226;22;20636;-76
2022/08/03 11:55:10;;;;;;;4.13;2.17;;;;;;;29.45;36.02;97020.94;6173190;22;20649;-76
2022/08/03 11:57:37;;;;;;;2.50;2.30;;;;;;;29.51;35.75;97022.84;6277022;22;20211;-75
2022/08/03 12:00:29;;;;;;;3.90;2.37;;;;;;;29.81;35.44;96997.72;6174101;22;20197;-74
2022/08/03 12:02:57;;;;;;;3.63;2.13;;;;;;;29.83;35.17;97025.06;6276243;22;20212;-75
2022/08/03 12:05:48;;;;;;;2.50;2.30;;;;;;;30.02;34.76;97010.25;6174111;22;20204;-73
2022/08/03 12:08:29;;;;;;;2.23;2.03;;;;;;;29.97;34.54;97007.31;6173412;22;20258;-77
2022/08/03 12:10:59;;;;;;;2.80;2.20;;;;;;;29.93;34.33;97011.38;6173626;22;20571;-75